Time;durP1;ratioP1;P1;durP2;ratioP2;P2;SDS_P1;SDS_P2;PMS_P1;PMS_P2;Temp;Humidity;BMP_temperature;BMP_pressure;BME280_temperature;BME280_humidity;BME280_pressure;Samples;Min_cycle;Max_cycle;Signal;HPM_P1;HPM_P2
2024/03/05 00:00:52;;;;;;;0.00;0.00;;;;;;;4.87;100.00;99421.41;6250773;22;20012;-76
2024/03/05 00:03:27;;;;;;;0.10;0.10;;;;;;;4.84;100.00;99419.19;6201587;22;19995;-77
2024/03/05 00:05:54;;;;;;;0.00;0.00;;;;;;;4.75;100.00;99420.72;6226845;22;19996;-77
2024/03/05 00:08:20;;;;;;;0.00;0.00;;;;;;;4.62;100.00;99401.06;6252280;22;19996;-76
2024/03/05 00:10:45;;;;;;;0.00;0.00;;;;;;;4.57;100.00;99398.31;6253181;22;20115;-77
2024/03/05 00:13:24;;;;;;;;;;;;;;;;;;;;;
2024/03/05 00:15:54;;;;;;;0.00;0.00;;;;;;;4.58;100.00;99399.09;6284095;22;20019;-76
2024/03/05 00:18:20;;;;;;;0.00;0.00;;;;;;;4.64;100.00;99420.56;6261355;22;20030;-76
2024/03/05 00:20:46;;;;;;;0.00;0.00;;;;;;;4.54;100.00;99415.03;6229694;22;20047;-76
2024/03/05 00:23:24;;;;;;;;;;;;;;;;;;;;;
2024/03/05 00:25:53;;;;;;;0.00;0.00;;;;;;;4.49;100.00;99417.69;6280381;22;20095;-75
2024/03/05 00:28:18;;;;;;;0.00;0.00;;;;;;;4.56;100.00;99434.56;6248891;22;20631;-76
2024/03/05 00:30:45;;;;;;;0.00;0.00;;;;;;;4.61;100.00;99437.31;6251639;22;20091;-75
2024/03/05 00:33:13;;;;;;;0.08;0.08;;;;;;;4.75;100.00;99436.97;6225133;22;20019;-76
2024/03/05 00:35:39;;;;;;;0.00;0.00;;;;;;;4.77;100.00;99429.41;6250701;22;20003;-74
2024/03/05 00:38:04;;;;;;;0.00;0.00;;;;;;;4.72;100.00;99400.38;6253466;22;20018;-78
2024/03/05 00:40:30;;;;;;;0.00;0.00;;;;;;;4.90;100.00;99429.03;6224338;22;20015;-77
2024/03/05 00:42:56;;;;;;;0.00;0.00;;;;;;;4.80;100.00;99418.06;6203402;22;20011;-76
2024/03/05 00:45:22;;;;;;;0.00;0.00;;;;;;;4.83;100.00;99426.53;6250494;22;20059;-76
2024/03/05 00:47:48;;;;;;;0.00;0.00;;;;;;;4.96;100.00;99444.25;6226305;22;20008;-76
2024/03/05 00:50:34;;;;;;;0.00;0.00;;;;;;;4.98;100.00;99444.84;6253964;22;20338;-76
2024/03/05 00:53:00;;;;;;;0.00;0.00;;;;;;;4.95;100.00;99448.06;6252826;22;20004;-77
2024/03/05 00:55:25;;;;;;;0.00;0.00;;;;;;;4.81;100.00;99431.34;6228941;22;20051;-76
2024/03/05 00:57:51;;;;;;;0.00;0.00;;;;;;;4.81;100.00;99446.78;6224861;22;20418;-76
2024/03/05 01:00:20;;;;;;;0.05;0.05;;;;;;;4.55;100.00;99416.66;6255683;22;20090;-77
2024/03/05 01:02:45;;;;;;;0.10;0.10;;;;;;;4.60;100.00;99435.72;6275839;22;20007;-75
2024/03/05 01:05:11;;;;;;;0.00;0.00;;;;;;;4.37;100.00;99407.78;6229097;22;20007;-76
2024/03/05 01:07:40;;;;;;;0.00;0.00;;;;;;;4.47;100.00;99426.06;6253204;22;20078;-77
2024/03/05 01:10:06;;;;;;;0.00;0.00;;;;;;;4.47;100.00;99430.66;6254137;22;20007;-77
2024/03/05 01:12:32;;;;;;;0.00;0.00;;;;;;;4.41;100.00;99431.63;6225477;22;20024;-75
2024/03/05 01:14:58;;;;;;;0.00;0.00;;;;;;;4.43;100.00;99437.63;6222300;23;20392;-78
2024/03/05 01:17:24;;;;;;;0.00;0.00;;;;;;;4.55;100.00;99462.69;6223312;23;20056;-74
2024/03/05 01:19:54;;;;;;;0.10;0.10;;;;;;;4.48;100.00;99448.53;6219603;23;20069;-77
2024/03/05 01:22:23;;;;;;;0.00;0.00;;;;;;;4.57;100.00;99463.28;6222732;23;20004;-75
2024/03/05 01:24:59;;;;;;;0.10;0.10;;;;;;;4.44;100.00;99441.97;6247810;23;20004;-77
2024/03/05 01:27:27;;;;;;;0.00;0.00;;;;;;;4.49;100.00;99440.16;6222355;23;20011;-77
2024/03/05 01:29:52;;;;;;;0.10;0.10;;;;;;;4.57;100.00;99443.50;6196207;23;20036;-76
2024/03/05 01:32:32;;;;;;;0.10;0.10;;;;;;;4.56;100.00;99434.56;6198794;23;20028;-78
2024/03/05 01:35:07;;;;;;;0.00;0.00;;;;;;;4.66;100.00;99442.81;6198668;23;20070;-79
2024/03/05 01:37:33;;;;;;;0.00;0.00;;;;;;;4.68;100.00;99437.16;6198424;23;20030;-80
2024/03/05 01:39:58;;;;;;;0.00;0.00;;;;;;;4.87;100.00;99462.03;6223158;23;20008;-78
2024/03/05 01:42:45;;;;;;;0.10;0.10;;;;;;;4.55;100.00;99403.13;6196761;23;20415;-79
2024/03/05 01:45:09;;;;;;;0.00;0.00;;;;;;;4.79;100.00;99427.25;6249947;23;20078;-78
2024/03/05 01:47:36;;;;;;;0.10;0.10;;;;;;;4.88;100.00;99429.28;6219986;23;20491;-78
2024/03/05 01:50:06;;;;;;;0.00;0.00;;;;;;;4.78;100.00;99421.03;6250024;23;20083;-78
2024/03/05 01:52:32;;;;;;;0.10;0.10;;;;;;;5.04;100.00;99459.28;6222166;23;20054;-79
2024/03/05 01:55:29;;;;;;;0.10;0.10;;;;;;;4.72;100.00;99420.13;6225281;23;19996;-77
2024/03/05 01:57:57;;;;;;;0.00;0.00;;;;;;;4.57;100.00;99403.72;6223040;23;20000;-78
2024/03/05 02:00:23;;;;;;;0.00;0.00;;;;;;;4.69;100.00;99439.59;6223612;23;20000;-78
2024/03/05 02:02:49;;;;;;;0.00;0.00;;;;;;;4.55;100.00;99435.63;6221602;23;20038;-78
2024/03/05 02:05:15;;;;;;;0.00;0.00;;;;;;;4.48;100.00;99437.69;6223228;23;19992;-78
2024/03/05 02:07:43;;;;;;;0.10;0.10;;;;;;;4.49;100.00;99455.59;6197234;23;20672;-77
2024/03/05 02:10:09;;;;;;;0.00;0.00;;;;;;;4.42;100.00;99460.34;6221478;23;20071;-78
2024/03/05 02:12:40;;;;;;;0.00;0.00;;;;;;;4.39;100.00;99471.69;6222993;22;20118;-78
2024/03/05 02:15:14;;;;;;;0.00;0.00;;;;;;;4.31;100.00;99457.50;6255763;22;20462;-78
2024/03/05 02:17:40;;;;;;;0.00;0.00;;;;;;;4.33;100.00;99471.59;6253787;22;20006;-77
2024/03/05 02:20:13;;;;;;;0.00;0.00;;;;;;;4.39;100.00;99477.09;6282431;22;19996;-77
2024/03/05 02:22:39;;;;;;;0.00;0.00;;;;;;;4.53;100.00;99467.56;6283636;22;20000;-77
2024/03/05 02:25:05;;;;;;;0.10;0.10;;;;;;;4.71;100.00;99479.97;6254923;22;20058;-76
2024/03/05 02:27:32;;;;;;;0.00;0.00;;;;;;;4.91;100.00;99484.84;6254999;22;20031;-77
2024/03/05 02:29:57;;;;;;;0.10;0.10;;;;;;;5.06;100.00;99485.03;6228345;22;20008;-76
2024/03/05 02:32:24;;;;;;;0.00;0.00;;;;;;;5.01;100.00;99466.00;6254550;22;20034;-77
2024/03/05 02:34:54;;;;;;;0.00;0.00;;;;;;;5.12;100.00;99468.84;6228809;22;20008;-77
2024/03/05 02:37:22;;;;;;;0.00;0.00;;;;;;;5.21;100.00;99467.31;6254289;22;20011;-77
2024/03/05 02:39:48;;;;;;;0.00;0.00;;;;;;;5.42;100.00;99496.28;6254475;22;20004;-77
2024/03/05 02:42:13;;;;;;;0.00;0.00;;;;;;;5.46;100.00;99488.47;6252337;22;20292;-78
2024/03/05 02:44:39;;;;;;;0.00;0.00;;;;;;;5.48;100.00;99480.09;6224326;22;20007;-77
2024/03/05 02:47:07;;;;;;;0.00;0.00;;;;;;;5.46;100.00;99479.50;6228308;22;20432;-77
2024/03/05 02:49:34;;;;;;;0.00;0.00;;;;;;;5.54;100.00;99487.19;6254659;22;20034;-75
2024/03/05 02:52:00;;;;;;;0.00;0.00;;;;;;;5.50;100.00;99480.63;6251762;22;20066;-76
2024/03/05 02:54:25;;;;;;;0.00;0.00;;;;;;;5.51;100.00;99485.81;6252397;22;19987;-78
2024/03/05 02:56:51;;;;;;;0.00;0.00;;;;;;;5.44;100.00;99476.25;6227227;22;20008;-77
2024/03/05 02:59:17;;;;;;;0.10;0.10;;;;;;;5.54;100.00;99500.75;6226006;22;20030;-76
2024/03/05 03:01:48;;;;;;;0.00;0.00;;;;;;;5.55;100.00;99499.69;6249930;22;20477;-77
2024/03/05 03:04:15;;;;;;;0.00;0.00;;;;;;;5.57;100.00;99502.94;6251753;22;20007;-76
2024/03/05 03:06:41;;;;;;;0.00;0.00;;;;;;;5.53;100.00;99496.41;6225420;22;20099;-76
2024/03/05 03:09:07;;;;;;;0.00;0.00;;;;;;;5.63;100.00;99509.25;6250297;22;20007;-76
2024/03/05 03:11:34;;;;;;;0.00;0.00;;;;;;;5.69;100.00;99509.03;6220595;23;20020;-76
2024/03/05 03:14:00;;;;;;;0.00;0.00;;;;;;;5.77;100.00;99514.00;6222955;23;19984;-77
2024/03/05 03:16:26;;;;;;;0.00;0.00;;;;;;;5.72;100.00;99499.56;6193581;23;20064;-77
2024/03/05 03:18:52;;;;;;;0.00;0.00;;;;;;;5.82;100.00;99512.41;6220369;23;20004;-76
2024/03/05 03:21:17;;;;;;;0.10;0.10;;;;;;;5.85;100.00;99506.47;6219447;23;20011;-76
2024/03/05 03:23:44;;;;;;;0.00;0.00;;;;;;;5.85;100.00;99510.00;6195602;23;20004;-77
2024/03/05 03:26:11;;;;;;;0.00;0.00;;;;;;;5.82;100.00;99504.28;6198003;23;20335;-76
2024/03/05 03:28:37;;;;;;;0.00;0.00;;;;;;;5.77;100.00;99503.16;6232245;23;20035;-76
2024/03/05 03:31:05;;;;;;;0.00;0.00;;;;;;;5.81;100.00;99519.75;6200582;23;20143;-76
2024/03/05 03:33:40;;;;;;;0.00;0.00;;;;;;;5.74;100.00;99511.81;6199131;23;20008;-76
2024/03/05 03:36:06;;;;;;;0.00;0.00;;;;;;;5.73;100.00;99518.28;6199834;23;20005;-76
2024/03/05 03:38:40;;;;;;;0.00;0.00;;;;;;;5.77;100.00;99530.28;6170939;23;20018;-76
2024/03/05 03:41:07;;;;;;;0.00;0.00;;;;;;;5.67;100.00;99511.19;6196101;23;20008;-76
2024/03/05 03:43:33;;;;;;;0.00;0.00;;;;;;;5.68;100.00;99509.28;6221429;23;20011;-76
2024/03/05 03:45:58;;;;;;;0.00;0.00;;;;;;;5.87;100.00;99531.44;6222311;23;20012;-76
2024/03/05 03:48:24;;;;;;;0.00;0.00;;;;;;;5.85;100.00;99520.03;6195663;23;20540;-76
2024/03/05 03:50:50;;;;;;;0.00;0.00;;;;;;;5.88;100.00;99514.09;6221187;23;20039;-76
2024/03/05 03:53:18;;;;;;;0.00;0.00;;;;;;;5.98;100.00;99526.97;6172259;23;20015;-75
2024/03/05 03:55:43;;;;;;;0.00;0.00;;;;;;;6.04;100.00;99532.19;6194720;23;20011;-76
2024/03/05 03:58:10;;;;;;;0.00;0.00;;;;;;;6.01;100.00;99529.97;6219256;23;20008;-76
2024/03/05 04:00:35;;;;;;;0.00;0.00;;;;;;;6.08;100.00;99536.03;6170218;23;20004;-76
2024/03/05 04:03:01;;;;;;;0.00;0.00;;;;;;;6.04;100.00;99539.50;6219437;23;20035;-76
2024/03/05 04:05:26;;;;;;;0.00;0.00;;;;;;;6.09;100.00;99540.38;6218722;23;20009;-77
2024/03/05 04:07:52;;;;;;;0.00;0.00;;;;;;;6.13;100.00;99537.16;6219255;23;20055;-76
2024/03/05 04:10:17;;;;;;;0.00;0.00;;;;;;;6.21;100.00;99544.84;6197911;23;20015;-76
2024/03/05 04:12:43;;;;;;;0.00;0.00;;;;;;;6.18;100.00;99551.59;6221343;22;20035;-77
2024/03/05 04:15:09;;;;;;;0.00;0.00;;;;;;;6.17;100.00;99554.56;6225356;22;20008;-77
2024/03/05 04:17:36;;;;;;;0.00;0.00;;;;;;;6.20;100.00;99554.84;6226567;22;20035;-77
2024/03/05 04:20:03;;;;;;;0.00;0.00;;;;;;;6.23;100.00;99556.25;6223732;22;19998;-75
2024/03/05 04:22:29;;;;;;;0.00;0.00;;;;;;;6.16;100.00;99558.34;6249697;22;20127;-76
2024/03/05 04:24:56;;;;;;;0.00;0.00;;;;;;;6.12;100.00;99577.06;6199667;22;20007;-76
2024/03/05 04:27:27;;;;;;;0.00;0.00;;;;;;;5.97;100.00;99576.88;6201763;22;20342;-76
2024/03/05 04:29:59;;;;;;;0.00;0.00;;;;;;;5.74;100.00;99585.06;6252073;22;20065;-76
2024/03/05 04:32:27;;;;;;;0.05;0.05;;;;;;;5.50;100.00;99575.53;6205851;22;20000;-76
2024/03/05 04:35:06;;;;;;;0.00;0.00;;;;;;;5.34;100.00;99564.50;6228321;22;20012;-75
2024/03/05 04:37:31;;;;;;;0.00;0.00;;;;;;;5.34;100.00;99580.78;6228303;22;20119;-74
2024/03/05 04:39:57;;;;;;;0.00;0.00;;;;;;;5.36;100.00;99594.06;6250025;22;19999;-74
2024/03/05 04:42:24;;;;;;;0.00;0.00;;;;;;;5.23;100.00;99581.75;6251653;22;20099;-74
2024/03/05 04:44:51;;;;;;;0.00;0.00;;;;;;;5.25;100.00;99585.81;6227894;22;20018;-76
2024/03/05 04:47:16;;;;;;;0.00;0.00;;;;;;;5.16;100.00;99584.63;6224869;22;20075;-75
2024/03/05 04:49:42;;;;;;;0.00;0.00;;;;;;;5.15;100.00;99599.22;6227124;22;20067;-76
2024/03/05 04:52:10;;;;;;;0.00;0.00;;;;;;;4.96;100.00;99585.16;6253481;22;20028;-76
2024/03/05 04:54:36;;;;;;;0.00;0.00;;;;;;;4.87;100.00;99583.94;6257218;22;20091;-77
2024/03/05 04:57:01;;;;;;;0.00;0.00;;;;;;;4.82;100.00;99610.94;6202436;22;20066;-76
2024/03/05 04:59:28;;;;;;;0.00;0.00;;;;;;;4.77;100.00;99603.56;6278040;22;20003;-76
2024/03/05 05:01:53;;;;;;;0.00;0.00;;;;;;;4.70;100.00;99600.22;6253887;22;20075;-75
2024/03/05 05:04:19;;;;;;;0.00;0.00;;;;;;;4.74;100.00;99606.78;6203908;22;20000;-76
2024/03/05 05:06:44;;;;;;;0.00;0.00;;;;;;;4.73;100.00;99602.41;6251352;22;19995;-76
2024/03/05 05:09:10;;;;;;;0.10;0.10;;;;;;;4.64;100.00;99599.31;6249964;22;20014;-75
2024/03/05 05:11:36;;;;;;;0.00;0.00;;;;;;;4.63;100.00;99608.53;6216100;22;20055;-76
2024/03/05 05:14:02;;;;;;;0.00;0.00;;;;;;;4.60;100.00;99614.44;6225303;22;20384;-75
2024/03/05 05:16:28;;;;;;;0.00;0.00;;;;;;;4.44;100.00;99598.97;6226459;22;20004;-75
2024/03/05 05:18:53;;;;;;;0.00;0.00;;;;;;;4.42;100.00;99598.41;6254170;22;20000;-75
2024/03/05 05:21:19;;;;;;;0.00;0.00;;;;;;;4.41;100.00;99599.47;6200321;22;20013;-76
2024/03/05 05:23:44;;;;;;;0.10;0.10;;;;;;;4.31;100.00;99592.84;6226871;22;20004;-75
2024/03/05 05:26:31;;;;;;;0.00;0.00;;;;;;;4.41;100.00;99623.84;6224842;22;20004;-77
2024/03/05 05:28:57;;;;;;;0.00;0.00;;;;;;;4.43;100.00;99619.03;6225939;22;20061;-75
2024/03/05 05:31:26;;;;;;;0.00;0.00;;;;;;;4.36;100.00;99602.91;6250724;22;20059;-75
2024/03/05 05:33:53;;;;;;;0.00;0.00;;;;;;;4.47;100.00;99623.69;6249848;22;20022;-75
2024/03/05 05:36:18;;;;;;;0.00;0.00;;;;;;;4.48;100.00;99621.78;6277515;22;20030;-74
2024/03/05 05:38:48;;;;;;;0.00;0.00;;;;;;;4.50;100.00;99619.69;6275216;22;20036;-74
2024/03/05 05:41:15;;;;;;;0.00;0.00;;;;;;;4.51;100.00;99621.31;6250010;22;20004;-74
2024/03/05 05:43:40;;;;;;;0.00;0.00;;;;;;;4.46;100.00;99618.53;6250290;22;20007;-74
2024/03/05 05:46:14;;;;;;;0.00;0.00;;;;;;;4.48;100.00;99621.78;6227226;22;20086;-75
2024/03/05 05:48:42;;;;;;;0.00;0.00;;;;;;;4.50;100.00;99625.91;6229679;22;20011;-75
2024/03/05 05:51:10;;;;;;;0.00;0.00;;;;;;;4.49;100.00;99624.25;6227743;22;20007;-75
2024/03/05 05:53:36;;;;;;;0.00;0.00;;;;;;;4.48;100.00;99630.75;6228507;22;20034;-76
2024/03/05 05:56:01;;;;;;;0.00;0.00;;;;;;;4.51;100.00;99641.09;6251612;22;20086;-75
2024/03/05 05:58:27;;;;;;;0.00;0.00;;;;;;;4.50;100.00;99639.44;6226408;22;19996;-75
2024/03/05 06:00:53;;;;;;;0.00;0.00;;;;;;;4.49;100.00;99639.69;6253466;22;19995;-75
2024/03/05 06:03:19;;;;;;;0.10;0.10;;;;;;;4.53;100.00;99646.25;6249219;22;20177;-74
2024/03/05 06:05:48;;;;;;;0.00;0.00;;;;;;;4.46;100.00;99640.19;6227870;22;20079;-75
2024/03/05 06:08:14;;;;;;;0.05;0.05;;;;;;;4.41;100.00;99631.97;6250920;22;20003;-76
2024/03/05 06:10:45;;;;;;;0.00;0.00;;;;;;;4.32;100.00;99629.69;6248428;22;20016;-75
2024/03/05 06:13:11;;;;;;;0.00;0.00;;;;;;;4.53;100.00;99674.16;6276729;22;20007;-75
2024/03/05 06:15:38;;;;;;;0.10;0.10;;;;;;;4.52;100.00;99671.69;6251722;22;20007;-74
2024/03/05 06:18:06;;;;;;;0.00;0.00;;;;;;;4.58;100.00;99681.53;6249636;22;20027;-73
2024/03/05 06:20:34;;;;;;;0.00;0.00;;;;;;;4.55;100.00;99682.03;6250222;22;20011;-75
2024/03/05 06:23:00;;;;;;;0.00;0.00;;;;;;;4.60;100.00;99684.84;6250255;22;20023;-76
2024/03/05 06:25:29;;;;;;;0.00;0.00;;;;;;;4.59;100.00;99685.09;6252422;22;20010;-75
2024/03/05 06:27:54;;;;;;;0.00;0.00;;;;;;;4.54;100.00;99686.63;6252190;22;20012;-75
2024/03/05 06:30:21;;;;;;;0.10;0.10;;;;;;;4.55;100.00;99698.28;6226314;22;20013;-76
2024/03/05 06:32:48;;;;;;;0.00;0.00;;;;;;;4.52;100.00;99702.28;6201822;22;20010;-75
2024/03/05 06:35:14;;;;;;;0.10;0.10;;;;;;;4.51;100.00;99697.13;6257861;22;20008;-75
2024/03/05 06:37:44;;;;;;;0.00;0.00;;;;;;;4.48;100.00;99701.16;6259748;22;20061;-76
2024/03/05 06:40:11;;;;;;;0.00;0.00;;;;;;;4.44;100.00;99696.44;6240471;22;20056;-76
2024/03/05 06:42:41;;;;;;;0.00;0.00;;;;;;;4.41;100.00;99702.34;6261191;22;20019;-76
2024/03/05 06:45:08;;;;;;;0.00;0.00;;;;;;;4.36;100.00;99703.91;6229204;22;20011;-74
2024/03/05 06:47:44;;;;;;;0.10;0.10;;;;;;;4.36;100.00;99706.59;6224721;22;20007;-74
2024/03/05 06:50:19;;;;;;;0.00;0.00;;;;;;;4.30;100.00;99710.28;6229006;22;20008;-74
2024/03/05 06:58:15;;;;;;;0.10;0.10;;;;;;;4.28;100.00;99719.69;6253627;22;20058;-73
2024/03/05 07:00:41;;;;;;;0.00;0.00;;;;;;;4.37;100.00;99729.91;6248766;22;20004;-74
2024/03/05 07:03:06;;;;;;;0.00;0.00;;;;;;;4.40;100.00;99738.63;6221821;22;20061;-74
2024/03/05 07:05:32;;;;;;;0.00;0.00;;;;;;;4.43;100.00;99741.66;6248142;22;20011;-74
2024/03/05 07:08:00;;;;;;;0.00;0.00;;;;;;;4.47;100.00;99742.81;6249063;22;20334;-75
2024/03/05 07:10:33;;;;;;;0.00;0.00;;;;;;;4.48;100.00;99732.81;6225564;22;20366;-75
2024/03/05 07:13:01;;;;;;;0.00;0.00;;;;;;;4.58;100.00;99745.72;6222084;22;20016;-74
2024/03/05 07:15:26;;;;;;;0.00;0.00;;;;;;;4.61;100.00;99751.44;6248247;22;20031;-72
2024/03/05 07:17:52;;;;;;;0.00;0.00;;;;;;;4.62;100.00;99744.97;6246835;22;20012;-72
2024/03/05 07:20:22;;;;;;;0.00;0.00;;;;;;;4.67;100.00;99749.66;6248122;22;20008;-73
2024/03/05 07:22:49;;;;;;;0.00;0.00;;;;;;;4.74;100.00;99755.75;6248081;22;20011;-74
2024/03/05 07:25:15;;;;;;;0.00;0.00;;;;;;;4.82;100.00;99757.22;6250318;22;20619;-72
2024/03/05 07:27:43;;;;;;;0.00;0.00;;;;;;;4.97;100.00;99776.47;6276718;22;20377;-71
2024/03/05 07:30:11;;;;;;;0.00;0.00;;;;;;;5.02;100.00;99773.88;6247856;22;20334;-75
2024/03/05 07:32:38;;;;;;;0.00;0.00;;;;;;;5.12;100.00;99780.50;6222910;22;20038;-73
2024/03/05 07:35:08;;;;;;;0.00;0.00;;;;;;;5.09;100.00;99767.47;6224715;22;20482;-74
2024/03/05 07:37:34;;;;;;;0.00;0.00;;;;;;;5.19;100.00;99789.31;6224852;22;20034;-73
2024/03/05 07:40:09;;;;;;;0.00;0.00;;;;;;;5.05;100.00;99773.38;6248066;22;20001;-73
2024/03/05 07:42:39;;;;;;;0.10;0.10;;;;;;;5.13;100.00;99784.88;6224312;22;20007;-73
2024/03/05 07:45:07;;;;;;;0.10;0.10;;;;;;;5.17;100.00;99794.13;6223311;22;20004;-73
2024/03/05 07:47:33;;;;;;;0.00;0.00;;;;;;;5.19;100.00;99794.72;6222683;22;20023;-72
2024/03/05 07:49:58;;;;;;;0.10;0.10;;;;;;;5.23;100.00;99796.69;6275337;22;20011;-76
2024/03/05 07:52:23;;;;;;;0.10;0.10;;;;;;;5.32;100.00;99816.09;6197176;22;20677;-71
2024/03/05 07:54:49;;;;;;;0.00;0.00;;;;;;;5.37;100.00;99816.19;6246556;22;20015;-74
2024/03/05 07:57:14;;;;;;;0.00;0.00;;;;;;;5.31;100.00;99805.50;6221467;22;20007;-72
2024/03/05 07:59:40;;;;;;;0.00;0.00;;;;;;;5.43;100.00;99817.06;6198060;22;19999;-72
2024/03/05 08:02:05;;;;;;;0.00;0.00;;;;;;;5.48;100.00;99813.63;6246676;22;20003;-75
2024/03/05 08:04:31;;;;;;;0.00;0.00;;;;;;;5.48;100.00;99819.06;6198083;22;20053;-74
2024/03/05 08:06:56;;;;;;;0.00;0.00;;;;;;;5.63;100.00;99827.41;6223586;22;20018;-73
2024/03/05 08:09:21;;;;;;;0.00;0.00;;;;;;;5.67;100.00;99831.28;6246131;22;20012;-74
2024/03/05 08:11:49;;;;;;;0.00;0.00;;;;;;;5.79;100.00;99831.19;6247851;22;20484;-74
2024/03/05 08:14:14;;;;;;;0.00;0.00;;;;;;;5.86;100.00;99839.16;6197563;22;20003;-73
2024/03/05 08:17:03;;;;;;;0.10;0.10;;;;;;;5.89;100.00;99836.75;6222491;22;20814;-74
2024/03/05 08:19:32;;;;;;;0.00;0.00;;;;;;;6.01;100.00;99839.41;6252621;22;20007;-73
2024/03/05 08:22:10;;;;;;;0.00;0.00;;;;;;;6.15;100.00;99853.44;6247933;22;20434;-75
2024/03/05 08:24:37;;;;;;;0.00;0.00;;;;;;;6.11;100.00;99836.00;6223477;22;20491;-75
2024/03/05 08:29:58;;;;;;;0.00;0.00;;;;;;;6.09;100.00;99838.97;6268340;22;20065;-74
2024/03/05 08:32:36;;;;;;;0.00;0.00;;;;;;;6.25;100.00;99871.75;6248565;22;20010;-75
2024/03/05 08:35:11;;;;;;;0.00;0.00;;;;;;;6.26;100.00;99863.38;6248027;22;20004;-74
2024/03/05 08:37:38;;;;;;;0.00;0.00;;;;;;;6.42;100.00;99893.44;6248079;22;20499;-74
2024/03/05 08:40:21;;;;;;;0.00;0.00;;;;;;;6.23;100.00;99852.19;6274284;22;20052;-75
2024/03/05 08:42:56;;;;;;;0.00;0.00;;;;;;;6.31;100.00;99865.34;6248050;22;20000;-75
2024/03/05 08:45:41;;;;;;;0.00;0.00;;;;;;;6.29;100.00;99872.91;6246349;22;20037;-74
2024/03/05 08:48:17;;;;;;;0.10;0.10;;;;;;;6.17;100.00;99888.50;6247650;22;20004;-75
2024/03/05 08:50:49;;;;;;;0.00;0.00;;;;;;;6.22;100.00;99908.38;6197919;22;20018;-74
2024/03/05 08:53:15;;;;;;;0.00;0.00;;;;;;;6.00;100.00;99883.06;6269684;22;20023;-74
2024/03/05 08:55:43;;;;;;;0.10;0.10;;;;;;;6.08;100.00;99907.91;6245753;22;20046;-73
2024/03/05 08:58:12;;;;;;;0.00;0.00;;;;;;;6.05;100.00;99913.84;6248944;22;20019;-73
2024/03/05 09:00:41;;;;;;;0.00;0.00;;;;;;;6.13;100.00;99933.50;6224315;22;20035;-74
2024/03/05 09:03:11;;;;;;;0.00;0.00;;;;;;;6.06;100.00;99917.34;6225365;22;20005;-73
2024/03/05 09:05:36;;;;;;;0.00;0.00;;;;;;;5.95;100.00;99908.22;6244898;22;20472;-74
2024/03/05 09:08:05;;;;;;;0.00;0.00;;;;;;;6.08;100.00;99932.34;6223789;22;20012;-74
2024/03/05 09:10:48;;;;;;;0.00;0.00;;;;;;;5.93;100.00;99905.75;6222374;22;20099;-73
2024/03/05 09:13:23;;;;;;;0.00;0.00;;;;;;;6.22;100.00;99954.56;6222591;22;20012;-74
2024/03/05 09:15:53;;;;;;;0.00;0.00;;;;;;;6.01;100.00;99930.88;6221456;22;20012;-74
2024/03/05 09:18:46;;;;;;;0.00;0.00;;;;;;;6.01;100.00;99931.69;6250258;22;20300;-74
2024/03/05 09:21:24;;;;;;;0.00;0.00;;;;;;;6.06;100.00;99934.50;6247549;22;20090;-74
2024/03/05 09:23:52;;;;;;;0.10;0.10;;;;;;;6.20;100.00;99956.69;6251402;22;20016;-74
2024/03/05 09:26:18;;;;;;;0.00;0.00;;;;;;;6.38;100.00;99979.19;6221502;22;20057;-74
2024/03/05 09:28:56;;;;;;;0.00;0.00;;;;;;;6.17;100.00;99942.78;6226727;22;20015;-74
2024/03/05 09:31:45;;;;;;;0.10;0.10;;;;;;;6.49;100.00;99974.75;6222129;22;20014;-73
2024/03/05 09:34:13;;;;;;;0.00;0.00;;;;;;;6.60;100.00;99980.09;6253871;22;20043;-74
2024/03/05 09:36:46;;;;;;;0.00;0.00;;;;;;;6.69;100.00;99980.47;6227602;22;20438;-74
2024/03/05 09:39:23;;;;;;;0.00;0.00;;;;;;;6.76;100.00;99986.56;6293169;22;20016;-75
2024/03/05 09:41:59;;;;;;;0.00;0.00;;;;;;;6.69;100.00;99960.59;6249889;22;20073;-74
2024/03/05 09:44:30;;;;;;;0.00;0.00;;;;;;;6.93;100.00;99991.09;6250655;22;20070;-74
2024/03/05 09:47:08;;;;;;;0.03;0.03;;;;;;;6.81;100.00;99955.91;6273251;22;20449;-73
2024/03/05 09:49:36;;;;;;;0.00;0.00;;;;;;;7.04;100.00;99984.72;6247783;22;20003;-74
2024/03/05 09:52:40;;;;;;;0.00;0.00;;;;;;;6.89;100.00;99957.34;6246159;22;20761;-73
2024/03/05 09:55:08;;;;;;;0.00;0.00;;;;;;;7.34;100.00;100019.63;6249721;22;20018;-73
2024/03/05 09:58:09;;;;;;;0.00;0.00;;;;;;;7.35;100.00;99993.22;6247980;22;20003;-73
2024/03/05 10:00:37;;;;;;;0.00;0.00;;;;;;;7.61;100.00;100024.25;6224857;22;20095;-73
2024/03/05 10:03:03;;;;;;;0.05;0.05;;;;;;;7.66;100.00;100015.31;6221522;22;20346;-73
2024/03/05 10:05:29;;;;;;;0.00;0.00;;;;;;;7.77;100.00;100024.41;6247649;22;20338;-73
2024/03/05 10:07:54;;;;;;;0.00;0.00;;;;;;;7.78;100.00;100026.91;6248317;22;20005;-73
2024/03/05 10:10:21;;;;;;;0.10;0.10;;;;;;;7.91;100.00;100024.81;6198581;22;19999;-72
2024/03/05 10:12:47;;;;;;;0.00;0.00;;;;;;;7.93;100.00;100019.91;6217599;22;20027;-73
2024/03/05 10:15:22;;;;;;;0.10;0.10;;;;;;;8.09;100.00;100040.78;6243915;23;20036;-73
2024/03/05 10:17:49;;;;;;;0.10;0.10;;;;;;;8.18;100.00;100038.41;6217193;23;20000;-72
2024/03/05 10:20:34;;;;;;;0.00;0.00;;;;;;;8.38;100.00;100046.75;6191549;23;20011;-73
2024/03/05 10:23:02;;;;;;;0.00;0.00;;;;;;;8.56;100.00;100050.19;6216451;23;20008;-73
2024/03/05 10:25:29;;;;;;;0.00;0.00;;;;;;;8.72;100.00;100049.19;6215017;23;20008;-74
2024/03/05 10:27:55;;;;;;;0.00;0.00;;;;;;;9.00;100.00;100060.81;6191078;23;20008;-72
2024/03/05 10:30:23;;;;;;;0.00;0.00;;;;;;;9.31;100.00;100060.13;6242152;23;20002;-72
2024/03/05 10:32:56;;;;;;;0.10;0.10;;;;;;;9.47;100.00;100069.22;6217583;23;20007;-73
2024/03/05 10:35:23;;;;;;;0.00;0.00;;;;;;;9.73;100.00;100075.56;6217154;23;20008;-74
2024/03/05 10:38:07;;;;;;;0.00;0.00;;;;;;;9.89;100.00;100071.78;6243504;23;20304;-73
2024/03/05 10:40:34;;;;;;;;;;;;;;;10.16;100.00;100076.19;6217398;23;20098;-74
2024/03/05 10:43:04;;;;;;;0.00;0.00;;;;;;;10.41;100.00;100088.25;6217186;23;20303;-74
2024/03/05 10:45:34;;;;;;;0.00;0.00;;;;;;;10.47;100.00;100087.19;6220329;23;20074;-74
2024/03/05 10:48:01;;;;;;;0.00;0.00;;;;;;;10.54;100.00;100087.72;6217198;23;20015;-73
2024/03/05 10:50:28;;;;;;;0.00;0.00;;;;;;;10.62;100.00;100069.94;6220919;23;20000;-73
2024/03/05 10:52:55;;;;;;;0.00;0.00;;;;;;;10.76;100.00;100087.44;6191912;23;20072;-73
2024/03/05 10:55:22;;;;;;;0.00;0.00;;;;;;;10.66;100.00;100087.44;6218399;23;20088;-73
2024/03/05 11:00:35;;;;;;;0.00;0.00;;;;;;;10.58;100.00;100093.47;6244753;23;20083;-73
2024/03/05 11:03:11;;;;;;;0.10;0.10;;;;;;;10.61;100.00;100093.72;6166170;23;20004;-74
2024/03/05 11:05:40;;;;;;;0.00;0.00;;;;;;;10.70;100.00;100106.84;6245908;23;20067;-73
2024/03/05 11:08:13;;;;;;;0.00;0.00;;;;;;;10.45;100.00;100089.34;6217514;23;20027;-72
2024/03/05 11:10:46;;;;;;;0.00;0.00;;;;;;;10.60;100.00;100111.25;6220933;22;20000;-73
2024/03/05 11:13:13;;;;;;;0.00;0.00;;;;;;;10.56;100.00;100107.41;6246349;22;20007;-72
2024/03/05 11:15:39;;;;;;;0.00;0.00;;;;;;;10.59;100.00;100112.31;6273131;22;19994;-73
2024/03/05 11:18:25;;;;;;;0.08;0.08;;;;;;;10.52;100.00;100111.78;6222859;22;20094;-75
2024/03/05 11:20:53;;;;;;;0.00;0.00;;;;;;;10.47;100.00;100109.06;6273249;22;20353;-72
2024/03/05 11:23:20;;;;;;;0.00;0.00;;;;;;;10.36;100.00;100112.88;6197684;22;20010;-74
2024/03/05 11:25:47;;;;;;;0.10;0.10;;;;;;;10.18;100.00;100122.34;6222929;22;20008;-74
2024/03/05 11:28:15;;;;;;;0.10;0.10;;;;;;;10.10;100.00;100113.63;6275624;22;20003;-74
2024/03/05 11:30:43;;;;;;;0.00;0.00;;;;;;;10.04;100.00;100116.63;6249401;22;20010;-73
2024/03/05 11:33:18;;;;;;;0.00;0.00;;;;;;;9.90;100.00;100133.53;6245414;22;20457;-72
2024/03/05 11:35:45;;;;;;;0.00;0.00;;;;;;;9.86;100.00;100121.47;6200275;22;20137;-73
2024/03/05 11:38:18;;;;;;;0.00;0.00;;;;;;;9.82;100.00;100130.50;6246485;22;20007;-73
2024/03/05 11:40:44;;;;;;;0.00;0.00;;;;;;;9.74;100.00;100118.19;6248955;22;20009;-74
2024/03/05 11:43:09;;;;;;;0.00;0.00;;;;;;;9.76;100.00;100126.91;6246775;22;20082;-72
2024/03/05 11:45:51;;;;;;;0.00;0.00;;;;;;;9.78;100.00;100132.91;6226279;22;20011;-73
2024/03/05 11:48:20;;;;;;;0.10;0.10;;;;;;;9.75;100.00;100130.72;6274367;22;20003;-73
2024/03/05 11:50:47;;;;;;;0.00;0.00;;;;;;;9.70;100.00;100128.00;6225223;22;20004;-73
2024/03/05 11:53:13;;;;;;;0.00;0.00;;;;;;;9.77;100.00;100142.22;6247337;22;20086;-74